sensor_id;sensor_type;location;lat;lon;timestamp;temperature;humidity
43671;DHT22;29267;50.906;7.248;2023-02-21T00:01:32;7.50;99.90
43671;DHT22;29267;50.906;7.248;2023-02-21T00:04:16;7.60;99.90
43671;DHT22;29267;50.906;7.248;2023-02-21T00:07:00;7.60;99.90
43671;DHT22;29267;50.906;7.248;2023-02-21T00:09:44;7.60;99.90
43671;DHT22;29267;50.906;7.248;2023-02-21T00:12:28;7.60;99.90
43671;DHT22;29267;50.906;7.248;2023-02-21T00:15:12;7.50;99.90
43671;DHT22;29267;50.906;7.248;2023-02-21T00:17:56;7.60;99.90
43671;DHT22;29267;50.906;7.248;2023-02-21T00:20:40;7.60;99.90
43671;DHT22;29267;50.906;7.248;2023-02-21T00:23:24;7.60;99.90
43671;DHT22;29267;50.906;7.248;2023-02-21T00:26:09;7.60;99.90
43671;DHT22;29267;50.906;7.248;2023-02-21T00:28:52;7.60;99.90
43671;DHT22;29267;50.906;7.248;2023-02-21T00:31:37;7.60;99.90
43671;DHT22;29267;50.906;7.248;2023-02-21T00:34:21;7.60;99.90
43671;DHT22;29267;50.906;7.248;2023-02-21T00:37:05;7.50;99.90
43671;DHT22;29267;50.906;7.248;2023-02-21T00:39:49;7.60;99.90
43671;DHT22;29267;50.906;7.248;2023-02-21T00:42:33;7.60;99.90
43671;DHT22;29267;50.906;7.248;2023-02-21T00:45:17;7.60;99.90
43671;DHT22;29267;50.906;7.248;2023-02-21T00:48:01;7.50;99.90
43671;DHT22;29267;50.906;7.248;2023-02-21T00:50:45;7.50;99.90
43671;DHT22;29267;50.906;7.248;2023-02-21T00:53:29;7.50;99.90
43671;DHT22;29267;50.906;7.248;2023-02-21T00:56:13;7.50;99.90
43671;DHT22;29267;50.906;7.248;2023-02-21T00:58:57;7.50;99.90
43671;DHT22;29267;50.906;7.248;2023-02-21T01:01:42;7.50;99.90
43671;DHT22;29267;50.906;7.248;2023-02-21T01:04:26;7.50;99.90
43671;DHT22;29267;50.906;7.248;2023-02-21T01:07:10;7.50;99.90
43671;DHT22;29267;50.906;7.248;2023-02-21T01:09:54;7.40;99.90
43671;DHT22;29267;50.906;7.248;2023-02-21T01:12:38;7.40;99.90
43671;DHT22;29267;50.906;7.248;2023-02-21T01:15:22;7.40;99.90
43671;DHT22;29267;50.906;7.248;2023-02-21T01:18:06;7.40;99.90
43671;DHT22;29267;50.906;7.248;2023-02-21T01:20:50;7.40;99.90
43671;DHT22;29267;50.906;7.248;2023-02-21T01:23:34;7.40;99.90
43671;DHT22;29267;50.906;7.248;2023-02-21T01:26:18;7.40;99.90
43671;DHT22;29267;50.906;7.248;2023-02-21T01:29:02;7.40;99.90
43671;DHT22;29267;50.906;7.248;2023-02-21T01:31:48;7.40;99.90
43671;DHT22;29267;50.906;7.248;2023-02-21T01:34:32;7.40;99.90
43671;DHT22;29267;50.906;7.248;2023-02-21T01:37:16;7.40;99.90
43671;DHT22;29267;50.906;7.248;2023-02-21T01:40:00;7.40;99.90
43671;DHT22;29267;50.906;7.248;2023-02-21T01:42:45;7.40;99.90
43671;DHT22;29267;50.906;7.248;2023-02-21T01:45:41;7.40;99.90
43671;DHT22;29267;50.906;7.248;2023-02-21T01:48:26;7.40;99.90
43671;DHT22;29267;50.906;7.248;2023-02-21T01:51:13;7.40;99.90
43671;DHT22;29267;50.906;7.248;2023-02-21T01:53:59;7.40;99.90
43671;DHT22;29267;50.906;7.248;2023-02-21T01:56:43;7.40;99.90
43671;DHT22;29267;50.906;7.248;2023-02-21T01:59:28;7.40;99.90
43671;DHT22;29267;50.906;7.248;2023-02-21T02:02:36;7.40;99.90
43671;DHT22;29267;50.906;7.248;2023-02-21T02:05:24;7.40;99.90
43671;DHT22;29267;50.906;7.248;2023-02-21T02:08:08;7.40;99.90
43671;DHT22;29267;50.906;7.248;2023-02-21T02:11:13;7.40;99.90
43671;DHT22;29267;50.906;7.248;2023-02-21T02:14:33;7.40;99.90
43671;DHT22;29267;50.906;7.248;2023-02-21T02:17:08;7.40;99.90
43671;DHT22;29267;50.906;7.248;2023-02-21T02:27:43;7.40;99.90
43671;DHT22;29267;50.906;7.248;2023-02-21T02:33:29;7.40;99.90
43671;DHT22;29267;50.906;7.248;2023-02-21T02:38:37;7.40;99.90
43671;DHT22;29267;50.906;7.248;2023-02-21T02:41:23;7.40;99.90
43671;DHT22;29267;50.906;7.248;2023-02-21T02:43:58;7.40;99.90
43671;DHT22;29267;50.906;7.248;2023-02-21T02:46:28;7.40;99.90
43671;DHT22;29267;50.906;7.248;2023-02-21T02:49:28;7.40;99.90
43671;DHT22;29267;50.906;7.248;2023-02-21T02:52:02;7.40;99.90
43671;DHT22;29267;50.906;7.248;2023-02-21T02:54:28;7.40;99.90
43671;DHT22;29267;50.906;7.248;2023-02-21T02:56:54;7.40;99.90
43671;DHT22;29267;50.906;7.248;2023-02-21T02:59:22;7.40;99.90
43671;DHT22;29267;50.906;7.248;2023-02-21T03:05:02;7.40;99.90
43671;DHT22;29267;50.906;7.248;2023-02-21T03:13:12;7.40;99.90
43671;DHT22;29267;50.906;7.248;2023-02-21T03:16:03;7.40;99.90
43671;DHT22;29267;50.906;7.248;2023-02-21T03:21:13;7.40;99.90
43671;DHT22;29267;50.906;7.248;2023-02-21T03:23:41;7.40;99.90
43671;DHT22;29267;50.906;7.248;2023-02-21T03:26:11;7.40;99.90
43671;DHT22;29267;50.906;7.248;2023-02-21T03:28:38;7.40;99.90
43671;DHT22;29267;50.906;7.248;2023-02-21T03:31:06;7.40;99.90
43671;DHT22;29267;50.906;7.248;2023-02-21T03:33:33;7.40;99.90
43671;DHT22;29267;50.906;7.248;2023-02-21T03:36:02;7.40;99.90
43671;DHT22;29267;50.906;7.248;2023-02-21T03:38:29;7.40;99.90
43671;DHT22;29267;50.906;7.248;2023-02-21T03:40:55;7.40;99.90
43671;DHT22;29267;50.906;7.248;2023-02-21T03:43:20;7.40;99.90
43671;DHT22;29267;50.906;7.248;2023-02-21T03:45:46;7.40;99.90
43671;DHT22;29267;50.906;7.248;2023-02-21T03:48:11;7.40;99.90
43671;DHT22;29267;50.906;7.248;2023-02-21T03:50:37;7.40;99.90
43671;DHT22;29267;50.906;7.248;2023-02-21T03:53:03;7.40;99.90
43671;DHT22;29267;50.906;7.248;2023-02-21T03:55:29;7.40;99.90
43671;DHT22;29267;50.906;7.248;2023-02-21T03:57:54;7.30;99.90
43671;DHT22;29267;50.906;7.248;2023-02-21T04:00:20;7.30;99.90
43671;DHT22;29267;50.906;7.248;2023-02-21T04:02:46;7.30;99.90
43671;DHT22;29267;50.906;7.248;2023-02-21T04:05:11;7.30;99.90
43671;DHT22;29267;50.906;7.248;2023-02-21T04:07:37;7.30;99.90
43671;DHT22;29267;50.906;7.248;2023-02-21T04:10:03;7.30;99.90
43671;DHT22;29267;50.906;7.248;2023-02-21T04:12:29;7.30;99.90
43671;DHT22;29267;50.906;7.248;2023-02-21T04:14:55;7.30;99.90
43671;DHT22;29267;50.906;7.248;2023-02-21T04:17:23;7.30;99.90
43671;DHT22;29267;50.906;7.248;2023-02-21T04:19:48;7.30;99.90
43671;DHT22;29267;50.906;7.248;2023-02-21T04:22:14;7.30;99.90
43671;DHT22;29267;50.906;7.248;2023-02-21T04:24:40;7.30;99.90
43671;DHT22;29267;50.906;7.248;2023-02-21T04:27:05;7.30;99.90
43671;DHT22;29267;50.906;7.248;2023-02-21T04:29:31;7.40;99.90
43671;DHT22;29267;50.906;7.248;2023-02-21T04:31:57;7.30;99.90
43671;DHT22;29267;50.906;7.248;2023-02-21T04:34:22;7.30;99.90
43671;DHT22;29267;50.906;7.248;2023-02-21T04:36:48;7.30;99.90
43671;DHT22;29267;50.906;7.248;2023-02-21T04:39:13;7.40;99.90
43671;DHT22;29267;50.906;7.248;2023-02-21T04:41:39;7.30;99.90
43671;DHT22;29267;50.906;7.248;2023-02-21T04:44:05;7.30;99.90
43671;DHT22;29267;50.906;7.248;2023-02-21T04:46:31;7.30;99.90
43671;DHT22;29267;50.906;7.248;2023-02-21T04:48:57;7.30;99.90
43671;DHT22;29267;50.906;7.248;2023-02-21T04:51:24;7.30;99.90
43671;DHT22;29267;50.906;7.248;2023-02-21T04:53:50;7.30;99.90
43671;DHT22;29267;50.906;7.248;2023-02-21T04:56:21;7.30;99.90
43671;DHT22;29267;50.906;7.248;2023-02-21T04:58:47;7.30;99.90
43671;DHT22;29267;50.906;7.248;2023-02-21T05:01:15;7.30;99.90
43671;DHT22;29267;50.906;7.248;2023-02-21T05:03:40;7.30;99.90
43671;DHT22;29267;50.906;7.248;2023-02-21T05:06:06;7.30;99.90
43671;DHT22;29267;50.906;7.248;2023-02-21T05:08:32;7.30;99.90
43671;DHT22;29267;50.906;7.248;2023-02-21T05:10:57;7.30;99.90
43671;DHT22;29267;50.906;7.248;2023-02-21T05:13:23;7.30;99.90
43671;DHT22;29267;50.906;7.248;2023-02-21T05:15:49;7.30;99.90
43671;DHT22;29267;50.906;7.248;2023-02-21T05:18:15;7.30;99.90
43671;DHT22;29267;50.906;7.248;2023-02-21T05:20:49;7.30;99.90
43671;DHT22;29267;50.906;7.248;2023-02-21T05:23:16;7.30;99.90
43671;DHT22;29267;50.906;7.248;2023-02-21T05:25:43;7.30;99.90
43671;DHT22;29267;50.906;7.248;2023-02-21T05:28:09;7.30;99.90
43671;DHT22;29267;50.906;7.248;2023-02-21T05:30:35;7.30;99.90
43671;DHT22;29267;50.906;7.248;2023-02-21T05:33:00;7.30;99.90
43671;DHT22;29267;50.906;7.248;2023-02-21T05:35:26;7.30;99.90
43671;DHT22;29267;50.906;7.248;2023-02-21T05:37:52;7.30;99.90
43671;DHT22;29267;50.906;7.248;2023-02-21T05:40:18;7.30;99.90
43671;DHT22;29267;50.906;7.248;2023-02-21T05:42:43;7.30;99.90
43671;DHT22;29267;50.906;7.248;2023-02-21T05:45:10;7.30;99.90
43671;DHT22;29267;50.906;7.248;2023-02-21T05:47:36;7.40;99.90
43671;DHT22;29267;50.906;7.248;2023-02-21T05:50:03;7.30;99.90
43671;DHT22;29267;50.906;7.248;2023-02-21T05:52:29;7.30;99.90
43671;DHT22;29267;50.906;7.248;2023-02-21T05:54:54;7.30;99.90
43671;DHT22;29267;50.906;7.248;2023-02-21T05:57:20;7.30;99.90
43671;DHT22;29267;50.906;7.248;2023-02-21T05:59:46;7.40;99.90
43671;DHT22;29267;50.906;7.248;2023-02-21T06:02:14;7.30;99.90
43671;DHT22;29267;50.906;7.248;2023-02-21T06:04:40;7.30;99.90
43671;DHT22;29267;50.906;7.248;2023-02-21T06:07:06;7.30;99.90
43671;DHT22;29267;50.906;7.248;2023-02-21T06:09:32;7.30;99.90
43671;DHT22;29267;50.906;7.248;2023-02-21T06:11:57;7.30;99.90
43671;DHT22;29267;50.906;7.248;2023-02-21T06:14:23;7.30;99.90
43671;DHT22;29267;50.906;7.248;2023-02-21T06:16:49;7.30;99.90
43671;DHT22;29267;50.906;7.248;2023-02-21T06:19:16;7.40;99.90
43671;DHT22;29267;50.906;7.248;2023-02-21T06:21:43;7.30;99.90
43671;DHT22;29267;50.906;7.248;2023-02-21T06:24:10;7.40;99.90
43671;DHT22;29267;50.906;7.248;2023-02-21T06:26:36;7.30;99.90
43671;DHT22;29267;50.906;7.248;2023-02-21T06:29:05;7.30;99.90
43671;DHT22;29267;50.906;7.248;2023-02-21T06:31:30;7.30;99.90
43671;DHT22;29267;50.906;7.248;2023-02-21T06:33:56;7.30;99.90
43671;DHT22;29267;50.906;7.248;2023-02-21T06:36:25;7.30;99.90
43671;DHT22;29267;50.906;7.248;2023-02-21T06:38:53;7.30;99.90
43671;DHT22;29267;50.906;7.248;2023-02-21T06:41:23;7.40;99.90
43671;DHT22;29267;50.906;7.248;2023-02-21T06:43:52;7.30;99.90
43671;DHT22;29267;50.906;7.248;2023-02-21T06:46:21;7.30;99.90
43671;DHT22;29267;50.906;7.248;2023-02-21T06:48:47;7.40;99.90
43671;DHT22;29267;50.906;7.248;2023-02-21T06:51:13;7.40;99.90
43671;DHT22;29267;50.906;7.248;2023-02-21T06:53:42;7.40;99.90
43671;DHT22;29267;50.906;7.248;2023-02-21T06:56:08;7.40;99.90
43671;DHT22;29267;50.906;7.248;2023-02-21T06:58:34;7.40;99.90
43671;DHT22;29267;50.906;7.248;2023-02-21T07:00:59;7.40;99.90
43671;DHT22;29267;50.906;7.248;2023-02-21T07:03:25;7.50;99.90
43671;DHT22;29267;50.906;7.248;2023-02-21T07:05:51;7.50;99.90
43671;DHT22;29267;50.906;7.248;2023-02-21T07:08:17;7.50;99.90
43671;DHT22;29267;50.906;7.248;2023-02-21T07:10:42;7.50;99.90
43671;DHT22;29267;50.906;7.248;2023-02-21T07:13:08;7.60;99.90
43671;DHT22;29267;50.906;7.248;2023-02-21T07:15:34;7.60;99.90
43671;DHT22;29267;50.906;7.248;2023-02-21T07:17:59;7.60;99.90
43671;DHT22;29267;50.906;7.248;2023-02-21T07:20:25;7.60;99.90
43671;DHT22;29267;50.906;7.248;2023-02-21T07:22:51;7.60;99.90
43671;DHT22;29267;50.906;7.248;2023-02-21T07:25:19;7.70;99.90
43671;DHT22;29267;50.906;7.248;2023-02-21T07:27:46;7.70;99.90
43671;DHT22;29267;50.906;7.248;2023-02-21T07:30:13;7.80;99.90
43671;DHT22;29267;50.906;7.248;2023-02-21T07:32:39;7.80;99.90
43671;DHT22;29267;50.906;7.248;2023-02-21T07:35:05;7.80;99.90
43671;DHT22;29267;50.906;7.248;2023-02-21T07:37:31;8.00;99.90
43671;DHT22;29267;50.906;7.248;2023-02-21T07:39:56;7.90;99.90
43671;DHT22;29267;50.906;7.248;2023-02-21T07:42:22;7.90;99.90
43671;DHT22;29267;50.906;7.248;2023-02-21T07:44:47;7.90;99.90
43671;DHT22;29267;50.906;7.248;2023-02-21T07:47:13;7.90;99.90
43671;DHT22;29267;50.906;7.248;2023-02-21T07:49:40;8.00;99.90
43671;DHT22;29267;50.906;7.248;2023-02-21T07:52:06;8.10;99.90
43671;DHT22;29267;50.906;7.248;2023-02-21T07:54:32;8.10;99.90
43671;DHT22;29267;50.906;7.248;2023-02-21T07:56:57;8.10;99.90
43671;DHT22;29267;50.906;7.248;2023-02-21T07:59:23;8.20;99.90
43671;DHT22;29267;50.906;7.248;2023-02-21T08:01:49;8.20;99.90
43671;DHT22;29267;50.906;7.248;2023-02-21T08:04:15;8.20;99.90
43671;DHT22;29267;50.906;7.248;2023-02-21T08:06:45;8.30;99.90
43671;DHT22;29267;50.906;7.248;2023-02-21T08:09:11;8.40;99.90
43671;DHT22;29267;50.906;7.248;2023-02-21T08:11:37;8.40;99.90
43671;DHT22;29267;50.906;7.248;2023-02-21T08:14:04;8.50;99.90
43671;DHT22;29267;50.906;7.248;2023-02-21T08:16:30;8.60;99.90
43671;DHT22;29267;50.906;7.248;2023-02-21T08:18:56;8.50;99.90
43671;DHT22;29267;50.906;7.248;2023-02-21T08:21:21;8.50;99.90
43671;DHT22;29267;50.906;7.248;2023-02-21T08:23:47;8.60;99.90
43671;DHT22;29267;50.906;7.248;2023-02-21T08:26:13;8.60;99.90
43671;DHT22;29267;50.906;7.248;2023-02-21T08:28:38;8.60;99.90
43671;DHT22;29267;50.906;7.248;2023-02-21T08:31:04;8.60;99.90
43671;DHT22;29267;50.906;7.248;2023-02-21T08:33:29;8.60;99.90
43671;DHT22;29267;50.906;7.248;2023-02-21T08:35:55;8.70;99.90
43671;DHT22;29267;50.906;7.248;2023-02-21T08:38:21;8.60;99.90
43671;DHT22;29267;50.906;7.248;2023-02-21T08:40:46;8.60;99.90
43671;DHT22;29267;50.906;7.248;2023-02-21T08:43:12;8.60;99.90
43671;DHT22;29267;50.906;7.248;2023-02-21T08:45:37;8.70;99.90
43671;DHT22;29267;50.906;7.248;2023-02-21T08:48:03;8.70;99.90
43671;DHT22;29267;50.906;7.248;2023-02-21T08:50:29;8.70;99.90
43671;DHT22;29267;50.906;7.248;2023-02-21T08:52:55;8.70;99.90
43671;DHT22;29267;50.906;7.248;2023-02-21T08:55:22;8.70;99.90
43671;DHT22;29267;50.906;7.248;2023-02-21T08:57:48;8.70;99.90
43671;DHT22;29267;50.906;7.248;2023-02-21T09:00:15;8.60;99.90
43671;DHT22;29267;50.906;7.248;2023-02-21T09:02:41;8.70;99.90
43671;DHT22;29267;50.906;7.248;2023-02-21T09:05:10;8.60;99.90
43671;DHT22;29267;50.906;7.248;2023-02-21T09:07:35;8.70;99.90
43671;DHT22;29267;50.906;7.248;2023-02-21T09:10:01;8.70;99.90
43671;DHT22;29267;50.906;7.248;2023-02-21T09:12:27;8.80;99.90
43671;DHT22;29267;50.906;7.248;2023-02-21T09:14:52;9.00;99.90
43671;DHT22;29267;50.906;7.248;2023-02-21T09:17:18;9.10;99.90
43671;DHT22;29267;50.906;7.248;2023-02-21T09:19:43;9.00;99.90
43671;DHT22;29267;50.906;7.248;2023-02-21T09:22:10;8.90;99.90
43671;DHT22;29267;50.906;7.248;2023-02-21T09:24:36;8.90;99.90
43671;DHT22;29267;50.906;7.248;2023-02-21T09:27:02;8.80;99.90
43671;DHT22;29267;50.906;7.248;2023-02-21T09:29:29;8.90;99.90
43671;DHT22;29267;50.906;7.248;2023-02-21T09:31:54;8.90;99.90
43671;DHT22;29267;50.906;7.248;2023-02-21T09:34:20;8.90;99.90
43671;DHT22;29267;50.906;7.248;2023-02-21T09:36:47;9.00;99.90
43671;DHT22;29267;50.906;7.248;2023-02-21T09:39:13;9.00;99.90
43671;DHT22;29267;50.906;7.248;2023-02-21T09:41:39;9.10;99.90
43671;DHT22;29267;50.906;7.248;2023-02-21T09:44:13;9.10;99.90
43671;DHT22;29267;50.906;7.248;2023-02-21T09:46:43;9.20;99.90
43671;DHT22;29267;50.906;7.248;2023-02-21T09:49:27;9.20;99.90
43671;DHT22;29267;50.906;7.248;2023-02-21T09:51:55;9.40;99.90
43671;DHT22;29267;50.906;7.248;2023-02-21T09:54:25;9.50;99.90
43671;DHT22;29267;50.906;7.248;2023-02-21T09:56:53;9.50;99.90
43671;DHT22;29267;50.906;7.248;2023-02-21T09:59:21;9.40;99.90
43671;DHT22;29267;50.906;7.248;2023-02-21T10:04:53;9.50;99.90
43671;DHT22;29267;50.906;7.248;2023-02-21T10:10:20;9.70;99.90
43671;DHT22;29267;50.906;7.248;2023-02-21T10:16:00;9.90;99.90
43671;DHT22;29267;50.906;7.248;2023-02-21T10:21:46;9.90;99.90
43671;DHT22;29267;50.906;7.248;2023-02-21T10:24:19;9.90;99.90
43671;DHT22;29267;50.906;7.248;2023-02-21T10:27:05;9.90;99.90
43671;DHT22;29267;50.906;7.248;2023-02-21T10:29:48;9.90;99.90
43671;DHT22;29267;50.906;7.248;2023-02-21T10:32:15;9.90;99.90
43671;DHT22;29267;50.906;7.248;2023-02-21T10:34:44;9.80;99.90
43671;DHT22;29267;50.906;7.248;2023-02-21T10:40:00;9.80;99.90
43671;DHT22;29267;50.906;7.248;2023-02-21T10:42:54;9.80;99.90
43671;DHT22;29267;50.906;7.248;2023-02-21T10:45:26;9.70;99.90
43671;DHT22;29267;50.906;7.248;2023-02-21T10:48:08;9.80;99.90
43671;DHT22;29267;50.906;7.248;2023-02-21T10:50:38;9.90;99.90
43671;DHT22;29267;50.906;7.248;2023-02-21T10:53:05;10.00;99.90
43671;DHT22;29267;50.906;7.248;2023-02-21T10:55:31;9.90;99.90
43671;DHT22;29267;50.906;7.248;2023-02-21T10:57:58;10.00;99.90
43671;DHT22;29267;50.906;7.248;2023-02-21T11:00:43;10.30;99.90
43671;DHT22;29267;50.906;7.248;2023-02-21T11:03:22;10.40;99.90
43671;DHT22;29267;50.906;7.248;2023-02-21T11:05:54;10.50;99.90
43671;DHT22;29267;50.906;7.248;2023-02-21T11:08:42;10.70;99.90
43671;DHT22;29267;50.906;7.248;2023-02-21T11:11:08;10.80;99.90
43671;DHT22;29267;50.906;7.248;2023-02-21T11:13:35;11.10;99.90
43671;DHT22;29267;50.906;7.248;2023-02-21T11:16:18;11.00;99.90
43671;DHT22;29267;50.906;7.248;2023-02-21T11:18:44;11.00;99.90
43671;DHT22;29267;50.906;7.248;2023-02-21T11:21:16;11.00;99.90
43671;DHT22;29267;50.906;7.248;2023-02-21T11:24:05;10.90;99.90
43671;DHT22;29267;50.906;7.248;2023-02-21T11:26:47;11.00;99.90
43671;DHT22;29267;50.906;7.248;2023-02-21T11:29:17;11.00;99.90
43671;DHT22;29267;50.906;7.248;2023-02-21T11:31:43;11.00;99.90
43671;DHT22;29267;50.906;7.248;2023-02-21T11:34:12;10.90;99.90
43671;DHT22;29267;50.906;7.248;2023-02-21T11:36:40;10.90;99.90
43671;DHT22;29267;50.906;7.248;2023-02-21T11:39:16;10.90;99.90
43671;DHT22;29267;50.906;7.248;2023-02-21T11:41:56;10.80;99.90
43671;DHT22;29267;50.906;7.248;2023-02-21T11:52:55;11.20;99.90
43671;DHT22;29267;50.906;7.248;2023-02-21T11:55:25;11.70;99.90
43671;DHT22;29267;50.906;7.248;2023-02-21T11:58:24;11.80;99.90
43671;DHT22;29267;50.906;7.248;2023-02-21T12:04:12;12.00;99.90
43671;DHT22;29267;50.906;7.248;2023-02-21T12:15:16;11.90;99.90
43671;DHT22;29267;50.906;7.248;2023-02-21T12:17:58;11.90;99.90
43671;DHT22;29267;50.906;7.248;2023-02-21T12:20:36;12.00;99.90
43671;DHT22;29267;50.906;7.248;2023-02-21T12:31:32;11.80;99.90
43671;DHT22;29267;50.906;7.248;2023-02-21T12:40:06;12.00;99.90
43671;DHT22;29267;50.906;7.248;2023-02-21T12:42:59;12.10;99.90
43671;DHT22;29267;50.906;7.248;2023-02-21T12:51:32;12.30;99.90
43671;DHT22;29267;50.906;7.248;2023-02-21T12:54:04;12.30;99.90
43671;DHT22;29267;50.906;7.248;2023-02-21T12:56:37;12.30;99.90
43671;DHT22;29267;50.906;7.248;2023-02-21T13:01:44;12.30;99.90
43671;DHT22;29267;50.906;7.248;2023-02-21T13:09:49;12.50;99.90
43671;DHT22;29267;50.906;7.248;2023-02-21T13:12:24;12.50;99.90
43671;DHT22;29267;50.906;7.248;2023-02-21T13:14:53;12.70;99.90
43671;DHT22;29267;50.906;7.248;2023-02-21T13:17:21;12.90;99.90
43671;DHT22;29267;50.906;7.248;2023-02-21T13:28:41;12.90;99.90
43671;DHT22;29267;50.906;7.248;2023-02-21T13:31:18;12.90;99.90
43671;DHT22;29267;50.906;7.248;2023-02-21T13:33:53;13.00;99.90
43671;DHT22;29267;50.906;7.248;2023-02-21T13:39:01;12.90;99.90
43671;DHT22;29267;50.906;7.248;2023-02-21T13:41:29;12.90;99.90
43671;DHT22;29267;50.906;7.248;2023-02-21T13:43:59;12.80;99.90
43671;DHT22;29267;50.906;7.248;2023-02-21T14:08:23;12.70;99.90
43671;DHT22;29267;50.906;7.248;2023-02-21T14:19:10;12.70;99.90
43671;DHT22;29267;50.906;7.248;2023-02-21T14:21:39;12.70;99.90
43671;DHT22;29267;50.906;7.248;2023-02-21T14:39:50;12.80;99.90
43671;DHT22;29267;50.906;7.248;2023-02-21T15:06:41;12.90;99.90
43671;DHT22;29267;50.906;7.248;2023-02-21T15:09:18;12.90;99.90
43671;DHT22;29267;50.906;7.248;2023-02-21T15:11:45;12.70;99.90
43671;DHT22;29267;50.906;7.248;2023-02-21T15:14:16;12.60;99.90
43671;DHT22;29267;50.906;7.248;2023-02-21T15:16:58;12.60;99.90
43671;DHT22;29267;50.906;7.248;2023-02-21T15:19:33;12.50;99.90
43671;DHT22;29267;50.906;7.248;2023-02-21T15:22:13;12.40;99.90
43671;DHT22;29267;50.906;7.248;2023-02-21T15:24:39;12.50;99.90
43671;DHT22;29267;50.906;7.248;2023-02-21T15:27:11;12.40;99.90
43671;DHT22;29267;50.906;7.248;2023-02-21T15:29:37;12.30;99.90
43671;DHT22;29267;50.906;7.248;2023-02-21T15:32:04;12.20;99.90
43671;DHT22;29267;50.906;7.248;2023-02-21T15:34:38;12.20;99.90
43671;DHT22;29267;50.906;7.248;2023-02-21T15:37:17;12.10;99.90
43671;DHT22;29267;50.906;7.248;2023-02-21T15:39:52;11.90;99.90
43671;DHT22;29267;50.906;7.248;2023-02-21T15:42:18;11.90;99.90
43671;DHT22;29267;50.906;7.248;2023-02-21T15:44:55;11.80;99.90
43671;DHT22;29267;50.906;7.248;2023-02-21T15:47:23;11.80;99.90
43671;DHT22;29267;50.906;7.248;2023-02-21T15:50:12;11.70;99.90
43671;DHT22;29267;50.906;7.248;2023-02-21T15:52:42;11.60;99.90
43671;DHT22;29267;50.906;7.248;2023-02-21T16:11:16;11.20;99.90
43671;DHT22;29267;50.906;7.248;2023-02-21T16:13:41;11.10;99.90
43671;DHT22;29267;50.906;7.248;2023-02-21T16:16:08;11.00;99.90
43671;DHT22;29267;50.906;7.248;2023-02-21T16:18:34;11.00;99.90
43671;DHT22;29267;50.906;7.248;2023-02-21T16:21:02;10.90;99.90
43671;DHT22;29267;50.906;7.248;2023-02-21T16:23:38;10.80;99.90
43671;DHT22;29267;50.906;7.248;2023-02-21T16:28:35;10.60;99.90
43671;DHT22;29267;50.906;7.248;2023-02-21T16:31:03;10.60;99.90
43671;DHT22;29267;50.906;7.248;2023-02-21T16:33:29;10.60;99.90
43671;DHT22;29267;50.906;7.248;2023-02-21T16:35:56;10.50;99.90
43671;DHT22;29267;50.906;7.248;2023-02-21T16:38:25;10.40;99.90
43671;DHT22;29267;50.906;7.248;2023-02-21T16:40:51;10.30;99.90
43671;DHT22;29267;50.906;7.248;2023-02-21T16:43:20;10.20;99.90
43671;DHT22;29267;50.906;7.248;2023-02-21T16:45:47;10.10;99.90
43671;DHT22;29267;50.906;7.248;2023-02-21T16:48:18;10.00;99.90
43671;DHT22;29267;50.906;7.248;2023-02-21T16:50:46;9.90;99.90
43671;DHT22;29267;50.906;7.248;2023-02-21T16:53:13;9.80;99.90
43671;DHT22;29267;50.906;7.248;2023-02-21T16:55:39;9.70;99.90
43671;DHT22;29267;50.906;7.248;2023-02-21T16:58:25;9.70;99.90
43671;DHT22;29267;50.906;7.248;2023-02-21T17:01:00;9.60;99.90
43671;DHT22;29267;50.906;7.248;2023-02-21T17:03:26;9.60;99.90
43671;DHT22;29267;50.906;7.248;2023-02-21T17:05:57;9.50;99.90
43671;DHT22;29267;50.906;7.248;2023-02-21T17:08:24;9.50;99.90
43671;DHT22;29267;50.906;7.248;2023-02-21T17:10:51;9.40;99.90
43671;DHT22;29267;50.906;7.248;2023-02-21T17:13:17;9.30;99.90
43671;DHT22;29267;50.906;7.248;2023-02-21T17:15:42;9.20;99.90
43671;DHT22;29267;50.906;7.248;2023-02-21T17:18:08;9.10;99.90
43671;DHT22;29267;50.906;7.248;2023-02-21T17:20:33;9.00;99.90
43671;DHT22;29267;50.906;7.248;2023-02-21T17:22:59;9.00;99.90
43671;DHT22;29267;50.906;7.248;2023-02-21T17:25:26;9.00;99.90
43671;DHT22;29267;50.906;7.248;2023-02-21T17:27:52;9.00;99.90
43671;DHT22;29267;50.906;7.248;2023-02-21T17:30:20;8.90;99.90
43671;DHT22;29267;50.906;7.248;2023-02-21T17:32:47;8.90;99.90
43671;DHT22;29267;50.906;7.248;2023-02-21T17:35:14;8.80;99.90
43671;DHT22;29267;50.906;7.248;2023-02-21T17:37:41;8.80;99.90
43671;DHT22;29267;50.906;7.248;2023-02-21T17:40:09;8.80;99.90
43671;DHT22;29267;50.906;7.248;2023-02-21T17:42:35;8.70;99.90
43671;DHT22;29267;50.906;7.248;2023-02-21T17:45:00;8.60;99.90
43671;DHT22;29267;50.906;7.248;2023-02-21T17:47:27;8.50;99.90
43671;DHT22;29267;50.906;7.248;2023-02-21T17:49:52;8.40;99.90
43671;DHT22;29267;50.906;7.248;2023-02-21T17:52:24;8.40;99.90
43671;DHT22;29267;50.906;7.248;2023-02-21T17:54:50;8.20;99.90
43671;DHT22;29267;50.906;7.248;2023-02-21T17:57:16;8.10;99.90
43671;DHT22;29267;50.906;7.248;2023-02-21T17:59:41;8.00;99.90
43671;DHT22;29267;50.906;7.248;2023-02-21T18:02:08;7.90;99.90
43671;DHT22;29267;50.906;7.248;2023-02-21T18:04:34;7.90;99.90
43671;DHT22;29267;50.906;7.248;2023-02-21T18:06:59;7.90;99.90
43671;DHT22;29267;50.906;7.248;2023-02-21T18:09:25;7.90;99.90
43671;DHT22;29267;50.906;7.248;2023-02-21T18:11:53;7.90;99.90
43671;DHT22;29267;50.906;7.248;2023-02-21T18:14:20;8.00;99.90
43671;DHT22;29267;50.906;7.248;2023-02-21T18:16:46;8.00;99.90
43671;DHT22;29267;50.906;7.248;2023-02-21T18:19:13;8.00;99.90
43671;DHT22;29267;50.906;7.248;2023-02-21T18:21:39;7.90;99.90
43671;DHT22;29267;50.906;7.248;2023-02-21T18:24:08;7.90;99.90
43671;DHT22;29267;50.906;7.248;2023-02-21T18:26:34;7.80;99.90
43671;DHT22;29267;50.906;7.248;2023-02-21T18:28:59;7.80;99.90
43671;DHT22;29267;50.906;7.248;2023-02-21T18:31:25;7.80;99.90
43671;DHT22;29267;50.906;7.248;2023-02-21T18:33:51;7.80;99.90
43671;DHT22;29267;50.906;7.248;2023-02-21T18:36:16;7.70;99.90
43671;DHT22;29267;50.906;7.248;2023-02-21T18:38:42;7.70;99.90
43671;DHT22;29267;50.906;7.248;2023-02-21T18:41:16;7.70;99.90
43671;DHT22;29267;50.906;7.248;2023-02-21T18:43:42;7.60;99.90
43671;DHT22;29267;50.906;7.248;2023-02-21T18:46:10;7.50;99.90
43671;DHT22;29267;50.906;7.248;2023-02-21T18:48:36;7.40;99.90
43671;DHT22;29267;50.906;7.248;2023-02-21T18:51:03;7.30;99.90
43671;DHT22;29267;50.906;7.248;2023-02-21T18:53:29;7.20;99.90
43671;DHT22;29267;50.906;7.248;2023-02-21T18:55:54;7.20;99.90
43671;DHT22;29267;50.906;7.248;2023-02-21T18:58:21;7.10;99.90
43671;DHT22;29267;50.906;7.248;2023-02-21T19:00:47;7.00;99.90
43671;DHT22;29267;50.906;7.248;2023-02-21T19:03:16;6.90;99.90
43671;DHT22;29267;50.906;7.248;2023-02-21T19:05:41;6.90;99.90
43671;DHT22;29267;50.906;7.248;2023-02-21T19:08:07;6.80;99.90
43671;DHT22;29267;50.906;7.248;2023-02-21T19:10:32;6.70;99.90
43671;DHT22;29267;50.906;7.248;2023-02-21T19:12:58;6.60;99.90
43671;DHT22;29267;50.906;7.248;2023-02-21T19:15:27;6.50;99.90